Time,TemperatureF,DewpointF,PressureIn,WindDirection,WindDirectionDegrees,WindSpeedMPH,WindSpeedGustMPH,Humidity,HourlyPrecipIn,Conditions,Clouds,dailyrainin,SoftwareType,DateUTC
2013-06-02 00:08:00,69.3,66.9,29.67,SSW,202,3.2,-999.0,92,-99.99,,,0.00,Acu-Link.com,2013-06-02 04:08:00,
2013-06-02 00:23:00,69.1,66.7,29.66,West,270,3.2,-999.0,92,-99.99,,,0.00,Acu-Link.com,2013-06-02 04:23:00,
2013-06-02 00:38:00,68.9,66.8,29.66,East,90,3.7,-999.0,93,-99.99,,,0.00,Acu-Link.com,2013-06-02 04:38:00,
2013-06-02 00:53:00,68.9,66.8,29.66,WSW,247,4.2,-999.0,93,-99.99,,,0.00,Acu-Link.com,2013-06-02 04:53:00,
2013-06-02 01:08:00,68.7,66.6,29.67,WSW,247,2.7,-999.0,93,-99.99,,,0.00,Acu-Link.com,2013-06-02 05:08:00,
2013-06-02 01:24:00,68.7,66.6,29.66,SSW,202,5.8,-999.0,93,-99.99,,,0.00,Acu-Link.com,2013-06-02 05:24:00,
2013-06-02 01:39:00,68.5,66.4,29.66,SSW,202,4.7,-999.0,93,-99.99,,,0.00,Acu-Link.com,2013-06-02 05:39:00,
2013-06-02 01:54:00,68.4,66.6,29.67,SW,225,4.2,-999.0,94,-99.99,,,0.00,Acu-Link.com,2013-06-02 05:54:00,
2013-06-02 02:10:00,68.4,66.6,29.67,WSW,247,3.2,-999.0,94,-99.99,,,0.00,Acu-Link.com,2013-06-02 06:10:00,
2013-06-02 02:25:00,67.8,66.0,29.66,WNW,292,5.3,-999.0,94,-99.99,,,0.00,Acu-Link.com,2013-06-02 06:25:00,
2013-06-02 02:40:00,67.5,66.0,29.66,West,270,4.2,-999.0,95,-99.99,,,0.00,Acu-Link.com,2013-06-02 06:40:00,
2013-06-02 02:55:00,67.1,65.6,29.67,West,270,6.8,-999.0,95,-99.99,,,0.00,Acu-Link.com,2013-06-02 06:55:00,
2013-06-02 03:11:00,67.3,65.8,29.67,WSW,247,4.7,-999.0,95,-99.99,,,0.00,Acu-Link.com,2013-06-02 07:11:00,
2013-06-02 03:26:00,67.1,65.6,29.66,WSW,247,2.7,-999.0,95,-99.99,,,0.00,Acu-Link.com,2013-06-02 07:26:00,
2013-06-02 03:41:00,66.9,65.4,29.66,SSW,202,3.7,-999.0,95,-99.99,,,0.00,Acu-Link.com,2013-06-02 07:41:00,
2013-06-02 03:56:00,66.7,65.2,29.67,SW,225,2.7,-999.0,95,-99.99,,,0.00,Acu-Link.com,2013-06-02 07:56:00,
2013-06-02 04:13:00,66.7,64.9,29.67,SW,225,5.3,-999.0,94,-99.99,,,0.00,Acu-Link.com,2013-06-02 08:13:00,
2013-06-02 04:28:00,66.7,64.9,29.67,WNW,292,4.2,-999.0,94,-99.99,,,0.00,Acu-Link.com,2013-06-02 08:28:00,
2013-06-02 04:44:00,66.9,64.8,29.67,WSW,247,3.7,-999.0,93,-99.99,,,0.00,Acu-Link.com,2013-06-02 08:44:00,
2013-06-02 04:59:00,66.9,64.8,29.67,West,270,3.7,-999.0,93,-99.99,,,0.00,Acu-Link.com,2013-06-02 08:59:00,
2013-06-02 05:14:00,66.9,64.8,29.68,West,270,3.7,-999.0,93,-99.99,,,0.00,Acu-Link.com,2013-06-02 09:14:00,
2013-06-02 05:29:00,66.9,64.5,29.68,West,270,3.2,-999.0,92,-99.99,,,0.00,Acu-Link.com,2013-06-02 09:29:00,
2013-06-02 05:44:00,66.7,64.3,29.68,South,180,3.7,-999.0,92,-99.99,,,0.00,Acu-Link.com,2013-06-02 09:44:00,
2013-06-02 05:59:00,66.7,64.3,29.68,WSW,247,3.7,-999.0,92,-99.99,,,0.00,Acu-Link.com,2013-06-02 09:59:00,
2013-06-02 06:15:00,66.6,64.2,29.68,SW,225,3.2,-999.0,92,-99.99,,,0.00,Acu-Link.com,2013-06-02 10:15:00,
2013-06-02 06:30:00,66.4,64.0,29.68,WSW,247,4.2,-999.0,92,-99.99,,,0.00,Acu-Link.com,2013-06-02 10:30:00,
2013-06-02 06:45:00,66.4,64.0,29.69,SSW,202,3.2,-999.0,92,-99.99,,,0.00,Acu-Link.com,2013-06-02 10:45:00,
2013-06-02 07:00:00,66.4,64.0,29.69,West,270,2.2,-999.0,92,-99.99,,,0.00,Acu-Link.com,2013-06-02 11:00:00,
2013-06-02 07:16:00,66.4,64.0,29.69,West,270,2.7,-999.0,92,-99.99,,,0.00,Acu-Link.com,2013-06-02 11:16:00,
2013-06-02 07:31:00,66.4,64.3,29.69,WSW,247,3.2,-999.0,93,-99.99,,,0.00,Acu-Link.com,2013-06-02 11:31:00,
2013-06-02 07:46:00,66.4,64.3,29.69,WSW,247,2.2,-999.0,93,-99.99,,,0.00,Acu-Link.com,2013-06-02 11:46:00,
2013-06-02 08:02:00,66.4,64.3,29.69,SSW,202,2.7,-999.0,93,-99.99,,,0.00,Acu-Link.com,2013-06-02 12:02:00,
2013-06-02 08:17:00,67.5,65.1,29.68,WSW,247,1.7,-999.0,92,-99.99,,,0.00,Acu-Link.com,2013-06-02 12:17:00,
2013-06-02 08:32:00,68.0,65.0,29.69,SSW,202,2.7,-999.0,90,-99.99,,,0.00,Acu-Link.com,2013-06-02 12:32:00,
2013-06-02 08:47:00,67.8,64.4,29.69,WSW,247,5.3,-999.0,89,-99.99,,,0.00,Acu-Link.com,2013-06-02 12:47:00,
2013-06-02 09:02:00,68.0,64.3,29.70,West,270,4.2,-999.0,88,-99.99,,,0.00,Acu-Link.com,2013-06-02 13:02:00,
2013-06-02 09:18:00,68.5,64.1,29.70,SW,225,2.7,-999.0,86,-99.99,,,0.00,Acu-Link.com,2013-06-02 13:18:00,
2013-06-02 09:33:00,68.7,64.0,29.69,SW,225,2.2,-999.0,85,-99.99,,,0.00,Acu-Link.com,2013-06-02 13:33:00,
2013-06-02 09:48:00,68.7,64.0,29.69,West,270,2.7,-999.0,85,-99.99,,,0.00,Acu-Link.com,2013-06-02 13:48:00,
2013-06-02 10:04:00,69.3,64.6,29.70,West,270,0.0,-999.0,85,-99.99,,,0.00,Acu-Link.com,2013-06-02 14:04:00,
2013-06-02 10:19:00,70.2,64.8,29.71,West,270,1.7,-999.0,83,-99.99,,,0.00,Acu-Link.com,2013-06-02 14:19:00,
2013-06-02 10:34:00,70.2,64.8,29.71,South,180,2.7,-999.0,83,-99.99,,,0.00,Acu-Link.com,2013-06-02 14:34:00,
2013-06-02 10:49:00,70.3,64.9,29.71,WNW,292,2.7,-999.0,83,-99.99,,,0.00,Acu-Link.com,2013-06-02 14:49:00,
2013-06-02 11:04:00,70.0,64.9,29.71,West,270,4.2,-999.0,84,-99.99,,,0.00,Acu-Link.com,2013-06-02 15:04:00,
2013-06-02 11:20:00,70.0,64.6,29.71,WSW,247,3.7,-999.0,83,-99.99,,,0.00,Acu-Link.com,2013-06-02 15:20:00,
2013-06-02 11:35:00,70.7,64.9,29.72,West,270,2.2,-999.0,82,-99.99,,,0.00,Acu-Link.com,2013-06-02 15:35:00,
2013-06-02 11:50:00,71.1,64.6,29.73,West,270,2.7,-999.0,80,-99.99,,,0.00,Acu-Link.com,2013-06-02 15:50:00,
2013-06-02 12:05:00,71.1,64.2,29.73,ESE,112,1.7,-999.0,79,-99.99,,,0.00,Acu-Link.com,2013-06-02 16:05:00,
2013-06-02 12:21:00,71.4,64.2,29.73,SW,225,2.2,-999.0,78,-99.99,,,0.00,Acu-Link.com,2013-06-02 16:21:00,
2013-06-02 12:36:00,70.9,63.7,29.72,West,270,2.7,-999.0,78,-99.99,,,0.00,Acu-Link.com,2013-06-02 16:36:00,
2013-06-02 12:51:00,71.8,63.8,29.72,West,270,3.2,-999.0,76,-99.99,,,0.00,Acu-Link.com,2013-06-02 16:51:00,
2013-06-02 13:06:00,73.6,63.2,29.71,SE,135,4.2,-999.0,70,-99.99,,,0.00,Acu-Link.com,2013-06-02 17:06:00,
2013-06-02 13:21:00,73.4,63.4,29.69,SSW,202,2.2,-999.0,71,-99.99,,,0.00,Acu-Link.com,2013-06-02 17:21:00,
2013-06-02 13:37:00,73.2,64.0,29.70,WNW,292,1.7,-999.0,73,-99.99,,,0.00,Acu-Link.com,2013-06-02 17:37:00,
2013-06-02 13:52:00,73.4,64.2,29.69,ENE,67,0.0,-999.0,73,-99.99,,,0.00,Acu-Link.com,2013-06-02 17:52:00,
2013-06-02 14:07:00,73.9,63.5,29.69,SW,225,0.0,-999.0,70,-99.99,,,0.00,Acu-Link.com,2013-06-02 18:07:00,
2013-06-02 14:23:00,74.7,65.5,29.69,NNW,337,1.7,-999.0,73,-99.99,,,0.00,Acu-Link.com,2013-06-02 18:23:00,
2013-06-02 14:38:00,73.9,64.7,29.68,West,270,2.7,-999.0,73,-99.99,,,0.00,Acu-Link.com,2013-06-02 18:38:00,
2013-06-02 14:53:00,74.7,64.7,29.68,WSW,247,5.8,-999.0,71,-99.99,,,0.00,Acu-Link.com,2013-06-02 18:53:00,
2013-06-02 15:08:00,74.7,64.7,29.68,WNW,292,2.7,-999.0,71,-99.99,,,0.00,Acu-Link.com,2013-06-02 19:08:00,
2013-06-02 15:23:00,75.0,64.5,29.68,WSW,247,3.7,-999.0,70,-99.99,,,0.00,Acu-Link.com,2013-06-02 19:23:00,
2013-06-02 15:39:00,77.4,66.0,29.67,South,180,3.7,-999.0,68,-99.99,,,0.00,Acu-Link.com,2013-06-02 19:39:00,
2013-06-02 15:54:00,77.4,65.6,29.66,NW,315,1.7,-999.0,67,-99.99,,,0.00,Acu-Link.com,2013-06-02 19:54:00,
2013-06-02 16:09:00,76.6,64.4,29.66,SSE,157,5.8,-999.0,66,-99.99,,,0.00,Acu-Link.com,2013-06-02 20:09:00,
2013-06-02 16:24:00,76.3,64.1,29.67,West,270,1.7,-999.0,66,-99.99,,,0.00,Acu-Link.com,2013-06-02 20:24:00,
2013-06-02 16:40:00,77.0,64.8,29.65,WSW,247,3.7,-999.0,66,-99.99,,,0.00,Acu-Link.com,2013-06-02 20:40:00,
2013-06-02 16:55:00,76.5,64.7,29.65,SE,135,4.7,-999.0,67,-99.99,,,0.00,Acu-Link.com,2013-06-02 20:55:00,
2013-06-02 17:10:00,76.5,65.6,29.65,SW,225,2.7,-999.0,69,-99.99,,,0.00,Acu-Link.com,2013-06-02 21:10:00,
2013-06-02 17:25:00,77.7,64.1,29.64,SW,225,3.2,-999.0,63,-99.99,,,0.00,Acu-Link.com,2013-06-02 21:25:00,
2013-06-02 17:41:00,76.5,64.3,29.64,West,270,2.7,-999.0,66,-99.99,,,0.00,Acu-Link.com,2013-06-02 21:41:00,
2013-06-02 17:56:00,76.3,64.1,29.64,WNW,292,4.7,-999.0,66,-99.99,,,0.00,Acu-Link.com,2013-06-02 21:56:00,
2013-06-02 18:11:00,75.9,64.6,29.64,WNW,292,1.7,-999.0,68,-99.99,,,0.00,Acu-Link.com,2013-06-02 22:11:00,
2013-06-02 18:27:00,75.7,64.4,29.64,SSW,202,2.7,-999.0,68,-99.99,,,0.00,Acu-Link.com,2013-06-02 22:27:00,
2013-06-02 18:42:00,75.7,64.8,29.64,WSW,247,2.7,-999.0,69,-99.99,,,0.00,Acu-Link.com,2013-06-02 22:42:00,
2013-06-02 18:57:00,78.6,64.5,29.63,SW,225,3.7,-999.0,62,-99.99,,,0.00,Acu-Link.com,2013-06-02 22:57:00,
2013-06-02 19:12:00,78.1,63.5,29.63,SW,225,3.7,-999.0,61,-99.99,,,0.00,Acu-Link.com,2013-06-02 23:12:00,
2013-06-02 19:28:00,77.2,63.2,29.64,WSW,247,0.0,-999.0,62,-99.99,,,0.00,Acu-Link.com,2013-06-02 23:28:00,
2013-06-02 19:43:00,76.3,62.8,29.64,West,270,2.7,-999.0,63,-99.99,,,0.00,Acu-Link.com,2013-06-02 23:43:00,
2013-06-02 19:58:00,75.6,62.5,29.65,South,180,2.2,-999.0,64,-99.99,,,0.00,Acu-Link.com,2013-06-02 23:58:00,
2013-06-02 20:14:00,75.0,62.4,29.65,West,270,7.8,-999.0,65,-99.99,,,0.00,Acu-Link.com,2013-06-03 00:14:00,
2013-06-02 20:29:00,73.2,61.6,29.66,WSW,247,3.2,-999.0,67,-99.99,,,0.00,Acu-Link.com,2013-06-03 00:29:00,
2013-06-02 20:44:00,72.1,61.4,29.67,West,270,3.2,-999.0,69,-99.99,,,0.00,Acu-Link.com,2013-06-03 00:44:00,
2013-06-02 20:59:00,71.4,61.5,29.67,West,270,2.7,-999.0,71,-99.99,,,0.00,Acu-Link.com,2013-06-03 00:59:00,
2013-06-02 21:15:00,70.5,61.4,29.68,West,270,3.2,-999.0,73,-99.99,,,0.00,Acu-Link.com,2013-06-03 01:15:00,
2013-06-02 21:30:00,69.8,61.1,29.68,ENE,67,1.7,-999.0,74,-99.99,,,0.00,Acu-Link.com,2013-06-03 01:30:00,
2013-06-02 21:45:00,68.9,61.0,29.68,North,0,1.1,-999.0,76,-99.99,,,0.00,Acu-Link.com,2013-06-03 01:45:00,
2013-06-02 22:01:00,68.2,60.7,29.69,WSW,247,0.0,-999.0,77,-99.99,,,0.00,Acu-Link.com,2013-06-03 02:01:00,
2013-06-02 22:31:00,67.3,60.6,29.69,West,270,1.7,-999.0,79,-99.99,,,0.00,Acu-Link.com,2013-06-03 02:31:00,
2013-06-02 22:46:00,66.7,60.3,29.70,West,270,2.2,-999.0,80,-99.99,,,0.00,Acu-Link.com,2013-06-03 02:46:00,
2013-06-02 23:01:00,66.7,60.3,29.70,West,270,1.7,-999.0,80,-99.99,,,0.00,Acu-Link.com,2013-06-03 03:01:00,
2013-06-02 23:16:00,65.8,59.8,29.69,NNE,22,0.0,-999.0,81,-99.99,,,0.00,Acu-Link.com,2013-06-03 03:16:00,
2013-06-02 23:32:00,64.9,59.9,29.70,SSW,202,0.0,-999.0,84,-99.99,,,0.00,Acu-Link.com,2013-06-03 03:32:00,
2013-06-02 23:47:00,64.6,59.7,29.70,WNW,292,3.2,-999.0,84,-99.99,,,0.00,Acu-Link.com,2013-06-03 03:47:00,